Alne, United Kingdom
Current Conditions -  °F | °C
As of 5:50 AM on Wednesday 22 Oct 2014 (Local Time) from EGXU Reporting Station
Broken Clouds Broken Clouds  
Wind Chill: 43°   Ceiling: 5000
Heat Index: 46°   Visibility: NA
Dew Point: 39°   Wind: 7mph
Humidity: 76%   Direction: 270°W
Pressure: 30.12"   Gusts: NA
Location:  54.08°N, 1.1°W
Report Text: EGXU 220450Z AUTO 27006KT //// // BKN050/// 08/04 Q1020
Loading
Personal Weather Stations






























Interactive Weather Map
Tropical Storm Tracking
New forecast layout! Learn more

10-Day Weather Forecast

Advertisements
Track Severe Weather on mobile